KBIX/BIX METAR and TAF weather

Enter ICAO airport designator
Station Type Date Time Source
KBIX METAR 2020/02/19 13:56 UTC NOAA

KBIX 191356Z AUTO 07008KT 10SM FEW110 BKN210 18/17 A3019 RMK AO2 SLP226 T01800173


Station Type Date Time Source
KBIX Decoded METAR 2020/02/19 13:56 UTC NOAA

Keesler Air Force Base / Biloxi, MS, United States (KBIX) 30-25N 088-55W
Feb 19, 2020 - 08:56 AM EST / 2020.02.19 1356 UTC
Wind: from the ENE (070 degrees) at 9 MPH (8 KT):0
Visibility: 10 mile(s):0
Sky conditions: mostly cloudy
Temperature: 64.4 F (18.0 C)
Dew Point: 63.1 F (17.3 C)
Relative Humidity: 95%
Pressure (altimeter): 30.19 in. Hg (1022 hPa)
ob: KBIX 191356Z AUTO 07008KT 10SM FEW110 BKN210 18/17 A3019 RMK AO2 SLP226 T01800173
cycle: 14

Station Type Date Time Source
KBIX TAF 2020/02/19 12:43 UTC NOAA

TAF
AMD KBIX 191225Z 1912/2016 01006KT 4800 BR SCT005 BKN020 QNH3016INS
BECMG 1918/1919 01006KT 8000 BR FEW005 BKN015 QNH3022INS
BECMG 2005/2006 03006KT 9000 BR BKN012 QNH3020INS
BECMG 2009/2010 03006KT 8000 BR BKN005 QNH3015INS
BECMG 2014/2015 VRB06KT 8000 -SHRA BKN004 QNH3010INS TX20/1920Z TN13/2002Z

Example: see airport list